sensor_id;sensor_type;location;lat;lon;timestamp;P1;durP1;ratioP1;P2;durP2;ratioP2
40595;SDS011;26304;48.794;9.820;2023-04-29T00:01:42;0.60;;;0.55;;
40595;SDS011;26304;48.794;9.820;2023-04-29T00:07:26;0.63;;;0.63;;
40595;SDS011;26304;48.794;9.820;2023-04-29T00:13:09;0.60;;;0.60;;
40595;SDS011;26304;48.794;9.820;2023-04-29T00:18:52;0.60;;;0.60;;
40595;SDS011;26304;48.794;9.820;2023-04-29T00:24:36;1.13;;;0.85;;
40595;SDS011;26304;48.794;9.820;2023-04-29T00:30:19;0.90;;;0.68;;
40595;SDS011;26304;48.794;9.820;2023-04-29T00:36:01;0.68;;;0.57;;
40595;SDS011;26304;48.794;9.820;2023-04-29T00:41:45;0.93;;;0.68;;
40595;SDS011;26304;48.794;9.820;2023-04-29T00:47:27;0.70;;;0.65;;
40595;SDS011;26304;48.794;9.820;2023-04-29T00:53:10;0.57;;;0.57;;
40595;SDS011;26304;48.794;9.820;2023-04-29T00:58:54;0.60;;;0.60;;
40595;SDS011;26304;48.794;9.820;2023-04-29T01:04:37;0.60;;;0.60;;
40595;SDS011;26304;48.794;9.820;2023-04-29T01:10:21;0.70;;;0.70;;
40595;SDS011;26304;48.794;9.820;2023-04-29T01:16:12;0.60;;;0.60;;
40595;SDS011;26304;48.794;9.820;2023-04-29T01:22:02;0.70;;;0.70;;
40595;SDS011;26304;48.794;9.820;2023-04-29T01:27:48;0.80;;;0.80;;
40595;SDS011;26304;48.794;9.820;2023-04-29T01:33:39;1.80;;;0.80;;
40595;SDS011;26304;48.794;9.820;2023-04-29T01:39:26;0.95;;;0.95;;
40595;SDS011;26304;48.794;9.820;2023-04-29T01:45:15;0.50;;;0.50;;
40595;SDS011;26304;48.794;9.820;2023-04-29T01:51:01;0.60;;;0.60;;
40595;SDS011;26304;48.794;9.820;2023-04-29T01:56:43;0.70;;;0.70;;
40595;SDS011;26304;48.794;9.820;2023-04-29T02:02:27;0.60;;;0.60;;
40595;SDS011;26304;48.794;9.820;2023-04-29T02:08:10;0.60;;;0.60;;
40595;SDS011;26304;48.794;9.820;2023-04-29T02:13:52;0.70;;;0.70;;
40595;SDS011;26304;48.794;9.820;2023-04-29T02:19:36;0.60;;;0.60;;
40595;SDS011;26304;48.794;9.820;2023-04-29T02:25:19;0.50;;;0.50;;
40595;SDS011;26304;48.794;9.820;2023-04-29T02:31:01;0.60;;;0.60;;
40595;SDS011;26304;48.794;9.820;2023-04-29T02:36:45;0.60;;;0.60;;
40595;SDS011;26304;48.794;9.820;2023-04-29T02:42:27;0.63;;;0.63;;
40595;SDS011;26304;48.794;9.820;2023-04-29T02:48:10;0.50;;;0.50;;
40595;SDS011;26304;48.794;9.820;2023-04-29T02:53:54;0.52;;;0.52;;
40595;SDS011;26304;48.794;9.820;2023-04-29T02:59:36;0.50;;;0.50;;
40595;SDS011;26304;48.794;9.820;2023-04-29T03:05:19;0.60;;;0.60;;
40595;SDS011;26304;48.794;9.820;2023-04-29T03:11:02;0.50;;;0.50;;
40595;SDS011;26304;48.794;9.820;2023-04-29T03:16:45;0.65;;;0.65;;
40595;SDS011;26304;48.794;9.820;2023-04-29T03:22:27;0.55;;;0.55;;
40595;SDS011;26304;48.794;9.820;2023-04-29T03:28:11;0.40;;;0.40;;
40595;SDS011;26304;48.794;9.820;2023-04-29T03:33:54;0.60;;;0.60;;
40595;SDS011;26304;48.794;9.820;2023-04-29T03:39:37;0.55;;;0.55;;
40595;SDS011;26304;48.794;9.820;2023-04-29T03:45:20;1.90;;;0.70;;
40595;SDS011;26304;48.794;9.820;2023-04-29T03:51:03;0.70;;;0.70;;
40595;SDS011;26304;48.794;9.820;2023-04-29T03:56:45;0.60;;;0.60;;
40595;SDS011;26304;48.794;9.820;2023-04-29T04:02:29;1.30;;;0.63;;
40595;SDS011;26304;48.794;9.820;2023-04-29T04:08:11;0.77;;;0.50;;
40595;SDS011;26304;48.794;9.820;2023-04-29T04:13:54;1.48;;;0.70;;
40595;SDS011;26304;48.794;9.820;2023-04-29T04:19:37;5.10;;;0.70;;
40595;SDS011;26304;48.794;9.820;2023-04-29T04:25:20;1.88;;;1.00;;
40595;SDS011;26304;48.794;9.820;2023-04-29T04:31:02;1.83;;;0.80;;
40595;SDS011;26304;48.794;9.820;2023-04-29T04:36:46;2.17;;;0.60;;
40595;SDS011;26304;48.794;9.820;2023-04-29T04:42:29;4.88;;;0.70;;
40595;SDS011;26304;48.794;9.820;2023-04-29T04:48:11;2.38;;;0.50;;
40595;SDS011;26304;48.794;9.820;2023-04-29T04:53:55;1.60;;;0.70;;
40595;SDS011;26304;48.794;9.820;2023-04-29T04:59:37;2.55;;;0.88;;
40595;SDS011;26304;48.794;9.820;2023-04-29T05:05:20;2.05;;;0.93;;
40595;SDS011;26304;48.794;9.820;2023-04-29T05:11:04;2.65;;;1.00;;
40595;SDS011;26304;48.794;9.820;2023-04-29T05:16:46;2.35;;;1.10;;
40595;SDS011;26304;48.794;9.820;2023-04-29T05:22:29;0.98;;;0.82;;
40595;SDS011;26304;48.794;9.820;2023-04-29T05:28:12;2.80;;;1.15;;
40595;SDS011;26304;48.794;9.820;2023-04-29T05:33:55;2.75;;;1.27;;
40595;SDS011;26304;48.794;9.820;2023-04-29T05:39:37;1.90;;;1.20;;
40595;SDS011;26304;48.794;9.820;2023-04-29T05:45:21;7.25;;;1.42;;
40595;SDS011;26304;48.794;9.820;2023-04-29T05:51:03;3.10;;;1.20;;
40595;SDS011;26304;48.794;9.820;2023-04-29T05:56:46;3.33;;;1.02;;
40595;SDS011;26304;48.794;9.820;2023-04-29T06:02:29;3.20;;;1.30;;
40595;SDS011;26304;48.794;9.820;2023-04-29T06:08:12;2.30;;;1.00;;
40595;SDS011;26304;48.794;9.820;2023-04-29T06:13:55;2.75;;;1.25;;
40595;SDS011;26304;48.794;9.820;2023-04-29T06:19:38;2.15;;;1.27;;
40595;SDS011;26304;48.794;9.820;2023-04-29T06:25:21;1.00;;;1.00;;
40595;SDS011;26304;48.794;9.820;2023-04-29T06:31:03;2.33;;;1.17;;
40595;SDS011;26304;48.794;9.820;2023-04-29T06:36:47;1.77;;;0.90;;
40595;SDS011;26304;48.794;9.820;2023-04-29T06:42:29;1.85;;;0.95;;
40595;SDS011;26304;48.794;9.820;2023-04-29T06:48:12;0.95;;;0.75;;
40595;SDS011;26304;48.794;9.820;2023-04-29T06:53:55;2.15;;;1.00;;
40595;SDS011;26304;48.794;9.820;2023-04-29T06:59:38;2.50;;;1.13;;
40595;SDS011;26304;48.794;9.820;2023-04-29T07:05:20;2.15;;;1.23;;
40595;SDS011;26304;48.794;9.820;2023-04-29T07:11:04;1.17;;;0.90;;
40595;SDS011;26304;48.794;9.820;2023-04-29T07:16:47;1.58;;;0.98;;
40595;SDS011;26304;48.794;9.820;2023-04-29T07:22:33;0.93;;;0.80;;
40595;SDS011;26304;48.794;9.820;2023-04-29T07:28:17;1.02;;;0.90;;
40595;SDS011;26304;48.794;9.820;2023-04-29T07:33:59;1.50;;;1.00;;
40595;SDS011;26304;48.794;9.820;2023-04-29T07:39:42;0.60;;;0.60;;
40595;SDS011;26304;48.794;9.820;2023-04-29T07:45:25;0.85;;;0.70;;
40595;SDS011;26304;48.794;9.820;2023-04-29T07:51:11;1.13;;;1.02;;
40595;SDS011;26304;48.794;9.820;2023-04-29T07:56:53;1.70;;;0.70;;
40595;SDS011;26304;48.794;9.820;2023-04-29T08:02:39;1.00;;;0.80;;
40595;SDS011;26304;48.794;9.820;2023-04-29T08:08:22;1.98;;;1.02;;
40595;SDS011;26304;48.794;9.820;2023-04-29T08:14:05;1.02;;;0.93;;
40595;SDS011;26304;48.794;9.820;2023-04-29T08:19:49;1.08;;;0.98;;
40595;SDS011;26304;48.794;9.820;2023-04-29T08:25:31;1.92;;;0.98;;
40595;SDS011;26304;48.794;9.820;2023-04-29T08:31:16;3.35;;;1.10;;
40595;SDS011;26304;48.794;9.820;2023-04-29T08:37:00;3.40;;;1.20;;
40595;SDS011;26304;48.794;9.820;2023-04-29T08:42:43;2.42;;;1.08;;
40595;SDS011;26304;48.794;9.820;2023-04-29T08:48:26;1.42;;;0.82;;
40595;SDS011;26304;48.794;9.820;2023-04-29T08:54:11;3.00;;;1.25;;
40595;SDS011;26304;48.794;9.820;2023-04-29T08:59:53;1.58;;;1.35;;
40595;SDS011;26304;48.794;9.820;2023-04-29T09:05:36;1.48;;;1.00;;
40595;SDS011;26304;48.794;9.820;2023-04-29T09:11:23;1.35;;;1.20;;
40595;SDS011;26304;48.794;9.820;2023-04-29T09:17:05;1.73;;;1.17;;
40595;SDS011;26304;48.794;9.820;2023-04-29T09:22:48;1.10;;;0.90;;
40595;SDS011;26304;48.794;9.820;2023-04-29T09:28:32;1.75;;;1.23;;
40595;SDS011;26304;48.794;9.820;2023-04-29T09:34:15;0.98;;;0.98;;
40595;SDS011;26304;48.794;9.820;2023-04-29T09:39:57;1.25;;;1.10;;
40595;SDS011;26304;48.794;9.820;2023-04-29T09:45:42;1.30;;;0.77;;
40595;SDS011;26304;48.794;9.820;2023-04-29T09:51:26;0.93;;;0.80;;
40595;SDS011;26304;48.794;9.820;2023-04-29T09:57:09;1.23;;;0.80;;
40595;SDS011;26304;48.794;9.820;2023-04-29T10:02:55;0.88;;;0.88;;
40595;SDS011;26304;48.794;9.820;2023-04-29T10:08:40;0.77;;;0.77;;
40595;SDS011;26304;48.794;9.820;2023-04-29T10:14:22;0.93;;;0.82;;
40595;SDS011;26304;48.794;9.820;2023-04-29T10:20:08;1.95;;;1.10;;
40595;SDS011;26304;48.794;9.820;2023-04-29T10:25:55;1.95;;;1.27;;
40595;SDS011;26304;48.794;9.820;2023-04-29T10:31:40;2.90;;;1.05;;
40595;SDS011;26304;48.794;9.820;2023-04-29T10:37:25;2.05;;;0.95;;
40595;SDS011;26304;48.794;9.820;2023-04-29T10:43:09;1.42;;;1.23;;
40595;SDS011;26304;48.794;9.820;2023-04-29T10:48:55;6.22;;;1.50;;
40595;SDS011;26304;48.794;9.820;2023-04-29T10:54:40;6.03;;;1.70;;
40595;SDS011;26304;48.794;9.820;2023-04-29T11:00:25;7.38;;;1.27;;
40595;SDS011;26304;48.794;9.820;2023-04-29T11:06:09;5.47;;;1.50;;
40595;SDS011;26304;48.794;9.820;2023-04-29T11:11:57;7.05;;;1.73;;
40595;SDS011;26304;48.794;9.820;2023-04-29T11:17:42;3.42;;;1.13;;
40595;SDS011;26304;48.794;9.820;2023-04-29T11:23:27;6.72;;;1.60;;
40595;SDS011;26304;48.794;9.820;2023-04-29T11:29:11;4.65;;;1.60;;
40595;SDS011;26304;48.794;9.820;2023-04-29T11:34:54;9.07;;;1.85;;
40595;SDS011;26304;48.794;9.820;2023-04-29T11:40:40;6.88;;;2.00;;
40595;SDS011;26304;48.794;9.820;2023-04-29T11:46:24;2.13;;;1.92;;
40595;SDS011;26304;48.794;9.820;2023-04-29T11:52:08;1.50;;;1.40;;
40595;SDS011;26304;48.794;9.820;2023-04-29T11:57:51;2.38;;;1.35;;
40595;SDS011;26304;48.794;9.820;2023-04-29T12:03:34;3.95;;;1.73;;
40595;SDS011;26304;48.794;9.820;2023-04-29T12:09:17;3.13;;;1.67;;
40595;SDS011;26304;48.794;9.820;2023-04-29T12:15:00;1.60;;;1.50;;
40595;SDS011;26304;48.794;9.820;2023-04-29T12:20:44;1.40;;;1.30;;
40595;SDS011;26304;48.794;9.820;2023-04-29T12:26:28;1.40;;;1.30;;
40595;SDS011;26304;48.794;9.820;2023-04-29T12:32:11;2.05;;;1.70;;
40595;SDS011;26304;48.794;9.820;2023-04-29T12:37:58;1.70;;;1.60;;
40595;SDS011;26304;48.794;9.820;2023-04-29T12:43:41;1.60;;;1.50;;
40595;SDS011;26304;48.794;9.820;2023-04-29T12:49:24;1.75;;;1.30;;
40595;SDS011;26304;48.794;9.820;2023-04-29T12:55:08;1.40;;;1.30;;
40595;SDS011;26304;48.794;9.820;2023-04-29T13:00:50;1.88;;;1.40;;
40595;SDS011;26304;48.794;9.820;2023-04-29T13:06:33;1.80;;;1.70;;
40595;SDS011;26304;48.794;9.820;2023-04-29T13:12:20;1.60;;;1.50;;
40595;SDS011;26304;48.794;9.820;2023-04-29T13:18:02;1.60;;;1.50;;
40595;SDS011;26304;48.794;9.820;2023-04-29T13:23:45;2.20;;;1.83;;
40595;SDS011;26304;48.794;9.820;2023-04-29T13:29:29;2.28;;;2.05;;
40595;SDS011;26304;48.794;9.820;2023-04-29T13:35:12;2.30;;;2.08;;
40595;SDS011;26304;48.794;9.820;2023-04-29T13:40:54;8.02;;;2.63;;
40595;SDS011;26304;48.794;9.820;2023-04-29T13:46:38;2.22;;;2.05;;
40595;SDS011;26304;48.794;9.820;2023-04-29T13:52:20;2.15;;;2.00;;
40595;SDS011;26304;48.794;9.820;2023-04-29T13:58:03;2.22;;;2.03;;
40595;SDS011;26304;48.794;9.820;2023-04-29T14:03:47;2.00;;;1.85;;
40595;SDS011;26304;48.794;9.820;2023-04-29T14:09:29;2.70;;;2.50;;
40595;SDS011;26304;48.794;9.820;2023-04-29T14:15:12;3.13;;;2.55;;
40595;SDS011;26304;48.794;9.820;2023-04-29T14:20:56;2.90;;;2.75;;
40595;SDS011;26304;48.794;9.820;2023-04-29T14:26:39;3.17;;;2.95;;
40595;SDS011;26304;48.794;9.820;2023-04-29T14:32:21;3.72;;;3.42;;
40595;SDS011;26304;48.794;9.820;2023-04-29T14:38:05;4.00;;;3.80;;
40595;SDS011;26304;48.794;9.820;2023-04-29T14:43:48;4.00;;;3.72;;
40595;SDS011;26304;48.794;9.820;2023-04-29T14:49:30;5.93;;;4.28;;
40595;SDS011;26304;48.794;9.820;2023-04-29T14:55:14;9.27;;;4.07;;
40595;SDS011;26304;48.794;9.820;2023-04-29T15:00:57;4.10;;;3.70;;
40595;SDS011;26304;48.794;9.820;2023-04-29T15:06:39;3.58;;;3.30;;
40595;SDS011;26304;48.794;9.820;2023-04-29T15:12:23;3.50;;;3.20;;
40595;SDS011;26304;48.794;9.820;2023-04-29T15:18:05;3.65;;;3.30;;
40595;SDS011;26304;48.794;9.820;2023-04-29T15:23:48;3.45;;;3.15;;
40595;SDS011;26304;48.794;9.820;2023-04-29T15:29:32;3.40;;;3.20;;
40595;SDS011;26304;48.794;9.820;2023-04-29T15:35:17;3.70;;;3.40;;
40595;SDS011;26304;48.794;9.820;2023-04-29T15:40:59;3.70;;;3.40;;
40595;SDS011;26304;48.794;9.820;2023-04-29T15:46:44;5.70;;;4.20;;
40595;SDS011;26304;48.794;9.820;2023-04-29T15:52:27;4.55;;;4.15;;
40595;SDS011;26304;48.794;9.820;2023-04-29T15:58:09;8.90;;;7.85;;
40595;SDS011;26304;48.794;9.820;2023-04-29T16:03:54;11.15;;;7.88;;
40595;SDS011;26304;48.794;9.820;2023-04-29T16:09:36;9.07;;;7.13;;
40595;SDS011;26304;48.794;9.820;2023-04-29T16:15:19;14.70;;;11.00;;
40595;SDS011;26304;48.794;9.820;2023-04-29T16:21:03;4.88;;;4.47;;
40595;SDS011;26304;48.794;9.820;2023-04-29T16:26:46;4.53;;;4.07;;
40595;SDS011;26304;48.794;9.820;2023-04-29T16:32:28;3.72;;;3.50;;
40595;SDS011;26304;48.794;9.820;2023-04-29T16:38:13;4.68;;;4.28;;
40595;SDS011;26304;48.794;9.820;2023-04-29T16:43:56;4.63;;;3.50;;
40595;SDS011;26304;48.794;9.820;2023-04-29T16:49:38;33.13;;;9.73;;
40595;SDS011;26304;48.794;9.820;2023-04-29T16:55:23;10.18;;;5.07;;
40595;SDS011;26304;48.794;9.820;2023-04-29T17:01:06;9.30;;;5.07;;
40595;SDS011;26304;48.794;9.820;2023-04-29T17:06:48;6.65;;;4.50;;
40595;SDS011;26304;48.794;9.820;2023-04-29T17:12:33;5.60;;;4.82;;
40595;SDS011;26304;48.794;9.820;2023-04-29T17:18:15;4.22;;;3.83;;
40595;SDS011;26304;48.794;9.820;2023-04-29T17:23:59;4.65;;;4.20;;
40595;SDS011;26304;48.794;9.820;2023-04-29T17:29:43;4.95;;;3.95;;
40595;SDS011;26304;48.794;9.820;2023-04-29T17:35:25;6.95;;;4.03;;
40595;SDS011;26304;48.794;9.820;2023-04-29T17:41:09;4.15;;;3.75;;
40595;SDS011;26304;48.794;9.820;2023-04-29T17:46:53;4.88;;;4.07;;
40595;SDS011;26304;48.794;9.820;2023-04-29T17:52:35;5.82;;;4.28;;
40595;SDS011;26304;48.794;9.820;2023-04-29T17:58:18;5.70;;;3.70;;
40595;SDS011;26304;48.794;9.820;2023-04-29T18:04:02;7.72;;;4.68;;
40595;SDS011;26304;48.794;9.820;2023-04-29T18:09:45;4.30;;;3.80;;
40595;SDS011;26304;48.794;9.820;2023-04-29T18:15:28;3.92;;;3.63;;
40595;SDS011;26304;48.794;9.820;2023-04-29T18:21:19;3.78;;;3.45;;
40595;SDS011;26304;48.794;9.820;2023-04-29T18:27:02;3.70;;;3.40;;
40595;SDS011;26304;48.794;9.820;2023-04-29T18:32:45;6.47;;;3.90;;
40595;SDS011;26304;48.794;9.820;2023-04-29T18:38:29;3.50;;;3.20;;
40595;SDS011;26304;48.794;9.820;2023-04-29T18:44:11;3.85;;;3.45;;
40595;SDS011;26304;48.794;9.820;2023-04-29T18:49:54;3.80;;;3.40;;
40595;SDS011;26304;48.794;9.820;2023-04-29T18:55:37;3.60;;;3.17;;
40595;SDS011;26304;48.794;9.820;2023-04-29T19:01:20;3.63;;;3.30;;
40595;SDS011;26304;48.794;9.820;2023-04-29T19:07:02;2.92;;;2.72;;
40595;SDS011;26304;48.794;9.820;2023-04-29T19:12:47;2.80;;;2.60;;
40595;SDS011;26304;48.794;9.820;2023-04-29T19:18:29;4.07;;;2.90;;
40595;SDS011;26304;48.794;9.820;2023-04-29T19:24:11;3.22;;;2.97;;
40595;SDS011;26304;48.794;9.820;2023-04-29T19:29:55;3.03;;;2.83;;
40595;SDS011;26304;48.794;9.820;2023-04-29T19:35:37;3.10;;;2.90;;
40595;SDS011;26304;48.794;9.820;2023-04-29T19:41:20;2.85;;;2.65;;
40595;SDS011;26304;48.794;9.820;2023-04-29T19:47:04;3.72;;;3.05;;
40595;SDS011;26304;48.794;9.820;2023-04-29T19:52:46;3.00;;;2.80;;
40595;SDS011;26304;48.794;9.820;2023-04-29T19:58:29;6.35;;;3.00;;
40595;SDS011;26304;48.794;9.820;2023-04-29T20:04:13;2.83;;;2.33;;
40595;SDS011;26304;48.794;9.820;2023-04-29T20:09:55;2.80;;;2.13;;
40595;SDS011;26304;48.794;9.820;2023-04-29T20:15:38;2.78;;;2.17;;
40595;SDS011;26304;48.794;9.820;2023-04-29T20:21:21;2.10;;;2.00;;
40595;SDS011;26304;48.794;9.820;2023-04-29T20:27:04;2.25;;;2.05;;
40595;SDS011;26304;48.794;9.820;2023-04-29T20:32:46;2.75;;;2.10;;
40595;SDS011;26304;48.794;9.820;2023-04-29T20:38:30;1.98;;;1.73;;
40595;SDS011;26304;48.794;9.820;2023-04-29T20:44:14;2.03;;;1.92;;
40595;SDS011;26304;48.794;9.820;2023-04-29T20:49:57;2.30;;;1.95;;
40595;SDS011;26304;48.794;9.820;2023-04-29T20:55:41;1.95;;;1.85;;
40595;SDS011;26304;48.794;9.820;2023-04-29T21:01:24;1.95;;;1.85;;
40595;SDS011;26304;48.794;9.820;2023-04-29T21:07:06;2.08;;;1.85;;
40595;SDS011;26304;48.794;9.820;2023-04-29T21:12:51;2.10;;;1.92;;
40595;SDS011;26304;48.794;9.820;2023-04-29T21:18:33;2.00;;;1.90;;
40595;SDS011;26304;48.794;9.820;2023-04-29T21:24:16;1.77;;;1.67;;
40595;SDS011;26304;48.794;9.820;2023-04-29T21:30:00;1.77;;;1.67;;
40595;SDS011;26304;48.794;9.820;2023-04-29T21:35:42;1.70;;;1.60;;
40595;SDS011;26304;48.794;9.820;2023-04-29T21:41:27;1.70;;;1.60;;
40595;SDS011;26304;48.794;9.820;2023-04-29T21:47:13;1.65;;;1.55;;
40595;SDS011;26304;48.794;9.820;2023-04-29T21:52:56;1.95;;;1.83;;
40595;SDS011;26304;48.794;9.820;2023-04-29T21:58:38;2.00;;;1.90;;
40595;SDS011;26304;48.794;9.820;2023-04-29T22:04:22;1.80;;;1.70;;
40595;SDS011;26304;48.794;9.820;2023-04-29T22:10:05;1.50;;;1.40;;
40595;SDS011;26304;48.794;9.820;2023-04-29T22:15:48;1.50;;;1.40;;
40595;SDS011;26304;48.794;9.820;2023-04-29T22:21:32;1.75;;;1.65;;
40595;SDS011;26304;48.794;9.820;2023-04-29T22:27:14;1.90;;;1.80;;
40595;SDS011;26304;48.794;9.820;2023-04-29T22:32:57;1.40;;;1.30;;
40595;SDS011;26304;48.794;9.820;2023-04-29T22:38:40;1.60;;;1.50;;
40595;SDS011;26304;48.794;9.820;2023-04-29T22:44:23;1.55;;;1.45;;
40595;SDS011;26304;48.794;9.820;2023-04-29T22:50:06;1.58;;;1.48;;
40595;SDS011;26304;48.794;9.820;2023-04-29T22:55:51;1.58;;;1.48;;
40595;SDS011;26304;48.794;9.820;2023-04-29T23:01:34;1.60;;;1.50;;
40595;SDS011;26304;48.794;9.820;2023-04-29T23:07:17;1.40;;;1.30;;
40595;SDS011;26304;48.794;9.820;2023-04-29T23:13:01;1.50;;;1.40;;
40595;SDS011;26304;48.794;9.820;2023-04-29T23:18:43;1.50;;;1.40;;
40595;SDS011;26304;48.794;9.820;2023-04-29T23:24:26;1.50;;;1.40;;
40595;SDS011;26304;48.794;9.820;2023-04-29T23:30:10;1.38;;;1.27;;
40595;SDS011;26304;48.794;9.820;2023-04-29T23:35:53;1.63;;;1.52;;
40595;SDS011;26304;48.794;9.820;2023-04-29T23:41:35;1.48;;;1.38;;
40595;SDS011;26304;48.794;9.820;2023-04-29T23:47:19;1.48;;;1.38;;
40595;SDS011;26304;48.794;9.820;2023-04-29T23:53:01;1.30;;;1.20;;
40595;SDS011;26304;48.794;9.820;2023-04-29T23:58:43;1.52;;;1.42;;
